sensor_id;sensor_type;location;lat;lon;timestamp;P1;durP1;ratioP1;P2;durP2;ratioP2
9852;SDS011;4965;43.238;27.864;2022-10-19T00:01:00;13.90;;;5.00;;
9852;SDS011;4965;43.238;27.864;2022-10-19T00:03:28;7.22;;;4.10;;
9852;SDS011;4965;43.238;27.864;2022-10-19T00:05:55;8.40;;;4.88;;
9852;SDS011;4965;43.238;27.864;2022-10-19T00:08:22;6.15;;;4.53;;
9852;SDS011;4965;43.238;27.864;2022-10-19T00:10:49;4.97;;;4.10;;
9852;SDS011;4965;43.238;27.864;2022-10-19T00:13:16;8.32;;;5.32;;
9852;SDS011;4965;43.238;27.864;2022-10-19T00:15:44;7.93;;;5.47;;
9852;SDS011;4965;43.238;27.864;2022-10-19T00:18:11;7.35;;;4.38;;
9852;SDS011;4965;43.238;27.864;2022-10-19T00:20:38;10.73;;;4.53;;
9852;SDS011;4965;43.238;27.864;2022-10-19T00:23:05;7.57;;;4.90;;
9852;SDS011;4965;43.238;27.864;2022-10-19T00:25:32;6.03;;;4.13;;
9852;SDS011;4965;43.238;27.864;2022-10-19T00:27:59;9.10;;;4.40;;
9852;SDS011;4965;43.238;27.864;2022-10-19T00:30:26;7.22;;;3.83;;
9852;SDS011;4965;43.238;27.864;2022-10-19T00:32:54;7.63;;;4.78;;
9852;SDS011;4965;43.238;27.864;2022-10-19T00:35:21;6.15;;;4.00;;
9852;SDS011;4965;43.238;27.864;2022-10-19T00:37:48;6.20;;;4.10;;
9852;SDS011;4965;43.238;27.864;2022-10-19T00:40:15;5.53;;;4.32;;
9852;SDS011;4965;43.238;27.864;2022-10-19T00:42:43;6.47;;;4.60;;
9852;SDS011;4965;43.238;27.864;2022-10-19T00:45:13;6.22;;;3.95;;
9852;SDS011;4965;43.238;27.864;2022-10-19T00:47:43;5.57;;;4.60;;
9852;SDS011;4965;43.238;27.864;2022-10-19T00:50:12;5.55;;;4.50;;
9852;SDS011;4965;43.238;27.864;2022-10-19T00:52:41;6.82;;;4.18;;
9852;SDS011;4965;43.238;27.864;2022-10-19T00:55:08;8.05;;;4.65;;
9852;SDS011;4965;43.238;27.864;2022-10-19T00:57:36;6.22;;;5.00;;
9852;SDS011;4965;43.238;27.864;2022-10-19T01:00:04;9.75;;;4.70;;
9852;SDS011;4965;43.238;27.864;2022-10-19T01:02:33;6.35;;;4.57;;
9852;SDS011;4965;43.238;27.864;2022-10-19T01:05:00;6.30;;;4.68;;
9852;SDS011;4965;43.238;27.864;2022-10-19T01:07:29;8.95;;;5.20;;
9852;SDS011;4965;43.238;27.864;2022-10-19T01:09:56;9.73;;;5.07;;
9852;SDS011;4965;43.238;27.864;2022-10-19T01:15:23;4.53;;;4.03;;
9852;SDS011;4965;43.238;27.864;2022-10-19T01:17:58;5.35;;;4.35;;
9852;SDS011;4965;43.238;27.864;2022-10-19T01:20:38;7.88;;;4.55;;
9852;SDS011;4965;43.238;27.864;2022-10-19T01:26:23;8.10;;;5.47;;
9852;SDS011;4965;43.238;27.864;2022-10-19T01:29:05;10.35;;;6.75;;
9852;SDS011;4965;43.238;27.864;2022-10-19T01:31:42;11.35;;;7.72;;
9852;SDS011;4965;43.238;27.864;2022-10-19T01:34:14;8.00;;;7.18;;
9852;SDS011;4965;43.238;27.864;2022-10-19T01:36:49;9.18;;;5.97;;
9852;SDS011;4965;43.238;27.864;2022-10-19T01:39:25;7.63;;;6.40;;
9852;SDS011;4965;43.238;27.864;2022-10-19T01:42:01;8.57;;;6.68;;
9852;SDS011;4965;43.238;27.864;2022-10-19T01:44:38;11.45;;;6.45;;
9852;SDS011;4965;43.238;27.864;2022-10-19T01:47:13;9.77;;;6.85;;
9852;SDS011;4965;43.238;27.864;2022-10-19T01:49:45;8.55;;;7.28;;
9852;SDS011;4965;43.238;27.864;2022-10-19T01:52:16;10.50;;;7.18;;
9852;SDS011;4965;43.238;27.864;2022-10-19T01:54:53;9.05;;;6.25;;
9852;SDS011;4965;43.238;27.864;2022-10-19T01:57:25;6.88;;;6.18;;
9852;SDS011;4965;43.238;27.864;2022-10-19T01:59:56;7.35;;;5.82;;
9852;SDS011;4965;43.238;27.864;2022-10-19T02:02:25;11.00;;;7.45;;
9852;SDS011;4965;43.238;27.864;2022-10-19T02:04:53;10.82;;;7.63;;
9852;SDS011;4965;43.238;27.864;2022-10-19T02:07:23;12.00;;;8.80;;
9852;SDS011;4965;43.238;27.864;2022-10-19T02:09:50;8.18;;;6.70;;
9852;SDS011;4965;43.238;27.864;2022-10-19T02:12:17;14.82;;;6.88;;
9852;SDS011;4965;43.238;27.864;2022-10-19T02:14:46;9.90;;;6.80;;
9852;SDS011;4965;43.238;27.864;2022-10-19T02:17:18;11.68;;;6.97;;
9852;SDS011;4965;43.238;27.864;2022-10-19T02:19:51;10.70;;;5.90;;
9852;SDS011;4965;43.238;27.864;2022-10-19T02:22:19;8.48;;;6.55;;
9852;SDS011;4965;43.238;27.864;2022-10-19T02:24:47;7.72;;;6.68;;
9852;SDS011;4965;43.238;27.864;2022-10-19T02:27:13;8.70;;;6.45;;
9852;SDS011;4965;43.238;27.864;2022-10-19T02:29:41;13.45;;;7.15;;
9852;SDS011;4965;43.238;27.864;2022-10-19T02:32:08;9.75;;;7.13;;
9852;SDS011;4965;43.238;27.864;2022-10-19T02:34:37;16.80;;;7.35;;
9852;SDS011;4965;43.238;27.864;2022-10-19T02:37:06;13.65;;;8.68;;
9852;SDS011;4965;43.238;27.864;2022-10-19T02:39:33;11.50;;;7.63;;
9852;SDS011;4965;43.238;27.864;2022-10-19T02:42:02;8.85;;;7.72;;
9852;SDS011;4965;43.238;27.864;2022-10-19T02:44:35;13.63;;;9.18;;
9852;SDS011;4965;43.238;27.864;2022-10-19T02:47:06;11.98;;;8.13;;
9852;SDS011;4965;43.238;27.864;2022-10-19T02:49:38;11.32;;;7.97;;
9852;SDS011;4965;43.238;27.864;2022-10-19T02:52:09;16.75;;;9.93;;
9852;SDS011;4965;43.238;27.864;2022-10-19T02:54:38;11.95;;;7.97;;
9852;SDS011;4965;43.238;27.864;2022-10-19T02:57:08;12.10;;;8.65;;
9852;SDS011;4965;43.238;27.864;2022-10-19T02:59:41;17.15;;;8.15;;
9852;SDS011;4965;43.238;27.864;2022-10-19T03:02:08;17.73;;;9.45;;
9852;SDS011;4965;43.238;27.864;2022-10-19T03:04:35;11.88;;;8.52;;
9852;SDS011;4965;43.238;27.864;2022-10-19T03:07:02;11.32;;;9.00;;
9852;SDS011;4965;43.238;27.864;2022-10-19T03:09:31;13.30;;;8.25;;
9852;SDS011;4965;43.238;27.864;2022-10-19T03:11:58;13.73;;;8.48;;
9852;SDS011;4965;43.238;27.864;2022-10-19T03:14:25;12.93;;;8.10;;
9852;SDS011;4965;43.238;27.864;2022-10-19T03:16:52;16.63;;;8.50;;
9852;SDS011;4965;43.238;27.864;2022-10-19T03:19:19;14.13;;;8.98;;
9852;SDS011;4965;43.238;27.864;2022-10-19T03:21:46;22.20;;;12.18;;
9852;SDS011;4965;43.238;27.864;2022-10-19T03:24:13;28.10;;;19.70;;
9852;SDS011;4965;43.238;27.864;2022-10-19T03:26:41;25.38;;;22.92;;
9852;SDS011;4965;43.238;27.864;2022-10-19T03:29:08;25.50;;;23.02;;
9852;SDS011;4965;43.238;27.864;2022-10-19T03:31:35;28.90;;;26.17;;
9852;SDS011;4965;43.238;27.864;2022-10-19T03:34:02;31.90;;;28.90;;
9852;SDS011;4965;43.238;27.864;2022-10-19T03:36:29;37.00;;;29.65;;
9852;SDS011;4965;43.238;27.864;2022-10-19T03:38:58;34.17;;;30.90;;
9852;SDS011;4965;43.238;27.864;2022-10-19T03:41:27;39.92;;;33.65;;
9852;SDS011;4965;43.238;27.864;2022-10-19T03:43:57;37.85;;;33.50;;
9852;SDS011;4965;43.238;27.864;2022-10-19T03:46:24;37.22;;;33.17;;
9852;SDS011;4965;43.238;27.864;2022-10-19T03:48:51;38.33;;;34.53;;
9852;SDS011;4965;43.238;27.864;2022-10-19T03:51:20;36.10;;;32.60;;
9852;SDS011;4965;43.238;27.864;2022-10-19T03:53:50;34.80;;;31.50;;
9852;SDS011;4965;43.238;27.864;2022-10-19T03:56:18;34.83;;;31.48;;
9852;SDS011;4965;43.238;27.864;2022-10-19T03:58:47;36.25;;;32.72;;
9852;SDS011;4965;43.238;27.864;2022-10-19T04:01:18;39.38;;;31.48;;
9852;SDS011;4965;43.238;27.864;2022-10-19T04:03:47;32.63;;;29.25;;
9852;SDS011;4965;43.238;27.864;2022-10-19T04:06:18;33.20;;;28.50;;
9852;SDS011;4965;43.238;27.864;2022-10-19T04:08:50;31.70;;;27.17;;
9852;SDS011;4965;43.238;27.864;2022-10-19T04:11:18;36.63;;;27.27;;
9852;SDS011;4965;43.238;27.864;2022-10-19T04:13:47;44.20;;;25.27;;
9852;SDS011;4965;43.238;27.864;2022-10-19T04:16:14;88.13;;;22.13;;
9852;SDS011;4965;43.238;27.864;2022-10-19T04:19:08;118.13;;;23.35;;
9852;SDS011;4965;43.238;27.864;2022-10-19T04:21:39;41.85;;;21.00;;
9852;SDS011;4965;43.238;27.864;2022-10-19T04:24:08;29.45;;;21.75;;
9852;SDS011;4965;43.238;27.864;2022-10-19T04:26:37;28.88;;;19.77;;
9852;SDS011;4965;43.238;27.864;2022-10-19T04:29:06;54.22;;;22.48;;
9852;SDS011;4965;43.238;27.864;2022-10-19T04:31:33;75.63;;;23.40;;
9852;SDS011;4965;43.238;27.864;2022-10-19T04:34:00;101.35;;;26.20;;
9852;SDS011;4965;43.238;27.864;2022-10-19T04:36:29;136.93;;;33.85;;
9852;SDS011;4965;43.238;27.864;2022-10-19T04:38:56;387.00;;;44.63;;
9852;SDS011;4965;43.238;27.864;2022-10-19T04:41:23;185.57;;;33.63;;
9852;SDS011;4965;43.238;27.864;2022-10-19T04:43:53;180.02;;;38.15;;
9852;SDS011;4965;43.238;27.864;2022-10-19T04:46:22;247.60;;;40.30;;
9852;SDS011;4965;43.238;27.864;2022-10-19T04:48:49;216.15;;;42.88;;
9852;SDS011;4965;43.238;27.864;2022-10-19T04:51:17;241.60;;;41.47;;
9852;SDS011;4965;43.238;27.864;2022-10-19T04:53:46;192.15;;;36.55;;
9852;SDS011;4965;43.238;27.864;2022-10-19T04:56:15;123.68;;;33.53;;
9852;SDS011;4965;43.238;27.864;2022-10-19T04:58:43;173.00;;;34.20;;
9852;SDS011;4965;43.238;27.864;2022-10-19T05:01:11;193.50;;;33.78;;
9852;SDS011;4965;43.238;27.864;2022-10-19T05:03:39;114.28;;;31.30;;
9852;SDS011;4965;43.238;27.864;2022-10-19T05:06:06;101.88;;;30.17;;
9852;SDS011;4965;43.238;27.864;2022-10-19T05:08:34;78.28;;;26.83;;
9852;SDS011;4965;43.238;27.864;2022-10-19T05:11:04;46.92;;;23.08;;
9852;SDS011;4965;43.238;27.864;2022-10-19T05:13:33;80.97;;;22.98;;
9852;SDS011;4965;43.238;27.864;2022-10-19T05:16:01;87.68;;;22.60;;
9852;SDS011;4965;43.238;27.864;2022-10-19T05:18:30;113.90;;;22.50;;
9852;SDS011;4965;43.238;27.864;2022-10-19T05:21:01;124.20;;;23.50;;
9852;SDS011;4965;43.238;27.864;2022-10-19T05:23:28;106.82;;;23.55;;
9852;SDS011;4965;43.238;27.864;2022-10-19T05:25:59;83.50;;;19.80;;
9852;SDS011;4965;43.238;27.864;2022-10-19T05:28:28;117.85;;;21.27;;
9852;SDS011;4965;43.238;27.864;2022-10-19T05:31:03;105.30;;;19.63;;
9852;SDS011;4965;43.238;27.864;2022-10-19T05:33:31;128.25;;;18.52;;
9852;SDS011;4965;43.238;27.864;2022-10-19T05:35:58;54.80;;;16.55;;
9852;SDS011;4965;43.238;27.864;2022-10-19T05:38:25;75.30;;;16.02;;
9852;SDS011;4965;43.238;27.864;2022-10-19T05:40:52;65.20;;;15.38;;
9852;SDS011;4965;43.238;27.864;2022-10-19T05:43:18;157.95;;;16.98;;
9852;SDS011;4965;43.238;27.864;2022-10-19T05:45:47;94.75;;;15.75;;
9852;SDS011;4965;43.238;27.864;2022-10-19T05:48:14;104.15;;;15.73;;
9852;SDS011;4965;43.238;27.864;2022-10-19T05:50:50;159.23;;;17.20;;
9852;SDS011;4965;43.238;27.864;2022-10-19T05:53:18;94.15;;;14.45;;
9852;SDS011;4965;43.238;27.864;2022-10-19T05:55:45;122.93;;;17.65;;
9852;SDS011;4965;43.238;27.864;2022-10-19T05:58:12;166.23;;;18.52;;
9852;SDS011;4965;43.238;27.864;2022-10-19T06:00:39;88.38;;;15.23;;
9852;SDS011;4965;43.238;27.864;2022-10-19T06:03:08;143.45;;;17.40;;
9852;SDS011;4965;43.238;27.864;2022-10-19T06:05:35;69.10;;;15.35;;
9852;SDS011;4965;43.238;27.864;2022-10-19T06:08:02;52.67;;;15.07;;
9852;SDS011;4965;43.238;27.864;2022-10-19T06:10:29;70.38;;;14.43;;
9852;SDS011;4965;43.238;27.864;2022-10-19T06:12:58;35.72;;;14.38;;
9852;SDS011;4965;43.238;27.864;2022-10-19T06:15:25;85.45;;;14.88;;
9852;SDS011;4965;43.238;27.864;2022-10-19T06:17:52;49.50;;;12.57;;
9852;SDS011;4965;43.238;27.864;2022-10-19T06:20:21;27.55;;;13.40;;
9852;SDS011;4965;43.238;27.864;2022-10-19T06:22:47;57.60;;;15.35;;
9852;SDS011;4965;43.238;27.864;2022-10-19T06:25:14;41.60;;;12.50;;
9852;SDS011;4965;43.238;27.864;2022-10-19T06:27:41;112.25;;;17.27;;
9852;SDS011;4965;43.238;27.864;2022-10-19T06:30:09;96.53;;;19.35;;
9852;SDS011;4965;43.238;27.864;2022-10-19T06:32:36;182.82;;;24.67;;
9852;SDS011;4965;43.238;27.864;2022-10-19T06:35:03;125.45;;;24.55;;
9852;SDS011;4965;43.238;27.864;2022-10-19T06:37:32;86.97;;;22.73;;
9852;SDS011;4965;43.238;27.864;2022-10-19T06:39:59;128.05;;;25.38;;
9852;SDS011;4965;43.238;27.864;2022-10-19T06:42:26;140.95;;;24.25;;
9852;SDS011;4965;43.238;27.864;2022-10-19T06:44:53;55.38;;;19.92;;
9852;SDS011;4965;43.238;27.864;2022-10-19T06:47:20;182.73;;;25.10;;
9852;SDS011;4965;43.238;27.864;2022-10-19T06:49:52;26.73;;;17.45;;
9852;SDS011;4965;43.238;27.864;2022-10-19T06:52:19;30.90;;;18.83;;
9852;SDS011;4965;43.238;27.864;2022-10-19T06:54:47;46.38;;;19.60;;
9852;SDS011;4965;43.238;27.864;2022-10-19T06:57:14;32.95;;;20.52;;
9852;SDS011;4965;43.238;27.864;2022-10-19T06:59:41;36.20;;;21.65;;
9852;SDS011;4965;43.238;27.864;2022-10-19T07:02:09;26.63;;;20.10;;
9852;SDS011;4965;43.238;27.864;2022-10-19T07:04:36;30.20;;;21.52;;
9852;SDS011;4965;43.238;27.864;2022-10-19T07:07:04;28.80;;;21.20;;
9852;SDS011;4965;43.238;27.864;2022-10-19T07:09:31;32.35;;;20.48;;
9852;SDS011;4965;43.238;27.864;2022-10-19T07:12:00;40.33;;;20.63;;
9852;SDS011;4965;43.238;27.864;2022-10-19T07:14:27;42.30;;;19.60;;
9852;SDS011;4965;43.238;27.864;2022-10-19T07:16:55;48.20;;;17.55;;
9852;SDS011;4965;43.238;27.864;2022-10-19T07:19:24;32.25;;;14.90;;
9852;SDS011;4965;43.238;27.864;2022-10-19T07:21:51;17.27;;;14.13;;
9852;SDS011;4965;43.238;27.864;2022-10-19T07:24:18;17.17;;;13.73;;
9852;SDS011;4965;43.238;27.864;2022-10-19T07:26:45;16.75;;;14.30;;
9852;SDS011;4965;43.238;27.864;2022-10-19T07:29:14;21.55;;;14.23;;
9852;SDS011;4965;43.238;27.864;2022-10-19T07:31:41;21.02;;;13.65;;
9852;SDS011;4965;43.238;27.864;2022-10-19T07:34:09;15.32;;;13.05;;
9852;SDS011;4965;43.238;27.864;2022-10-19T07:36:38;16.02;;;11.88;;
9852;SDS011;4965;43.238;27.864;2022-10-19T07:39:09;16.42;;;11.20;;
9852;SDS011;4965;43.238;27.864;2022-10-19T07:41:37;13.30;;;11.55;;
9852;SDS011;4965;43.238;27.864;2022-10-19T07:44:04;14.98;;;12.32;;
9852;SDS011;4965;43.238;27.864;2022-10-19T07:46:33;16.27;;;12.40;;
9852;SDS011;4965;43.238;27.864;2022-10-19T07:49:02;15.88;;;11.38;;
9852;SDS011;4965;43.238;27.864;2022-10-19T07:51:30;13.95;;;11.65;;
9852;SDS011;4965;43.238;27.864;2022-10-19T07:53:57;15.95;;;12.00;;
9852;SDS011;4965;43.238;27.864;2022-10-19T07:56:25;15.98;;;10.48;;
9852;SDS011;4965;43.238;27.864;2022-10-19T07:58:54;17.58;;;11.25;;
9852;SDS011;4965;43.238;27.864;2022-10-19T08:01:23;18.88;;;12.32;;
9852;SDS011;4965;43.238;27.864;2022-10-19T08:03:53;26.15;;;13.77;;
9852;SDS011;4965;43.238;27.864;2022-10-19T08:06:21;18.40;;;14.73;;
9852;SDS011;4965;43.238;27.864;2022-10-19T08:08:49;21.20;;;15.43;;
9852;SDS011;4965;43.238;27.864;2022-10-19T08:11:18;17.80;;;14.95;;
9852;SDS011;4965;43.238;27.864;2022-10-19T08:13:46;20.02;;;16.17;;
9852;SDS011;4965;43.238;27.864;2022-10-19T08:16:20;21.15;;;15.10;;
9852;SDS011;4965;43.238;27.864;2022-10-19T08:18:49;25.95;;;16.60;;
9852;SDS011;4965;43.238;27.864;2022-10-19T08:21:18;25.23;;;17.58;;
9852;SDS011;4965;43.238;27.864;2022-10-19T08:23:45;26.33;;;18.88;;
9852;SDS011;4965;43.238;27.864;2022-10-19T08:26:12;42.60;;;24.48;;
9852;SDS011;4965;43.238;27.864;2022-10-19T08:28:39;45.08;;;28.83;;
9852;SDS011;4965;43.238;27.864;2022-10-19T08:31:10;50.45;;;28.85;;
9852;SDS011;4965;43.238;27.864;2022-10-19T08:33:38;55.95;;;31.75;;
9852;SDS011;4965;43.238;27.864;2022-10-19T08:36:06;55.13;;;29.92;;
9852;SDS011;4965;43.238;27.864;2022-10-19T08:38:35;62.83;;;32.05;;
9852;SDS011;4965;43.238;27.864;2022-10-19T08:41:06;61.10;;;31.90;;
9852;SDS011;4965;43.238;27.864;2022-10-19T08:43:47;66.63;;;34.65;;
9852;SDS011;4965;43.238;27.864;2022-10-19T08:46:26;70.40;;;35.67;;
9852;SDS011;4965;43.238;27.864;2022-10-19T08:49:00;68.78;;;35.00;;
9852;SDS011;4965;43.238;27.864;2022-10-19T08:51:28;80.35;;;37.75;;
9852;SDS011;4965;43.238;27.864;2022-10-19T08:54:02;74.07;;;36.00;;
9852;SDS011;4965;43.238;27.864;2022-10-19T08:56:38;66.15;;;32.55;;
9852;SDS011;4965;43.238;27.864;2022-10-19T08:59:16;61.03;;;30.85;;
9852;SDS011;4965;43.238;27.864;2022-10-19T09:02:09;60.30;;;30.25;;
9852;SDS011;4965;43.238;27.864;2022-10-19T09:04:43;48.92;;;27.38;;
9852;SDS011;4965;43.238;27.864;2022-10-19T09:07:26;37.90;;;22.77;;
9852;SDS011;4965;43.238;27.864;2022-10-19T09:09:56;34.65;;;20.13;;
9852;SDS011;4965;43.238;27.864;2022-10-19T09:12:36;34.13;;;16.88;;
9852;SDS011;4965;43.238;27.864;2022-10-19T09:15:09;36.75;;;15.90;;
9852;SDS011;4965;43.238;27.864;2022-10-19T09:17:38;23.67;;;13.93;;
9852;SDS011;4965;43.238;27.864;2022-10-19T09:20:12;17.80;;;13.27;;
9852;SDS011;4965;43.238;27.864;2022-10-19T09:22:41;17.30;;;12.70;;
9852;SDS011;4965;43.238;27.864;2022-10-19T09:25:17;22.80;;;12.75;;
9852;SDS011;4965;43.238;27.864;2022-10-19T09:27:47;21.58;;;12.20;;
9852;SDS011;4965;43.238;27.864;2022-10-19T09:30:19;19.77;;;12.80;;
9852;SDS011;4965;43.238;27.864;2022-10-19T09:32:49;16.88;;;11.38;;
9852;SDS011;4965;43.238;27.864;2022-10-19T09:35:25;13.20;;;8.75;;
9852;SDS011;4965;43.238;27.864;2022-10-19T09:37:56;9.82;;;7.30;;
9852;SDS011;4965;43.238;27.864;2022-10-19T09:40:26;15.43;;;7.30;;
9852;SDS011;4965;43.238;27.864;2022-10-19T09:42:54;13.27;;;6.80;;
9852;SDS011;4965;43.238;27.864;2022-10-19T09:45:30;10.93;;;6.35;;
9852;SDS011;4965;43.238;27.864;2022-10-19T09:48:01;9.73;;;5.85;;
9852;SDS011;4965;43.238;27.864;2022-10-19T09:50:30;7.97;;;6.10;;
9852;SDS011;4965;43.238;27.864;2022-10-19T09:52:57;12.65;;;6.47;;
9852;SDS011;4965;43.238;27.864;2022-10-19T09:55:29;8.45;;;6.43;;
9852;SDS011;4965;43.238;27.864;2022-10-19T09:58:05;13.32;;;7.05;;
9852;SDS011;4965;43.238;27.864;2022-10-19T10:00:42;10.00;;;6.68;;
9852;SDS011;4965;43.238;27.864;2022-10-19T10:03:21;8.02;;;5.45;;
9852;SDS011;4965;43.238;27.864;2022-10-19T10:05:50;13.00;;;5.32;;
9852;SDS011;4965;43.238;27.864;2022-10-19T10:08:18;14.18;;;4.85;;
9852;SDS011;4965;43.238;27.864;2022-10-19T10:10:54;6.63;;;3.67;;
9852;SDS011;4965;43.238;27.864;2022-10-19T10:13:26;4.45;;;3.10;;
9852;SDS011;4965;43.238;27.864;2022-10-19T10:15:54;4.93;;;3.22;;
9852;SDS011;4965;43.238;27.864;2022-10-19T10:18:23;7.07;;;3.05;;
9852;SDS011;4965;43.238;27.864;2022-10-19T10:20:57;18.05;;;3.60;;
9852;SDS011;4965;43.238;27.864;2022-10-19T10:23:29;6.10;;;3.20;;
9852;SDS011;4965;43.238;27.864;2022-10-19T10:26:02;7.70;;;3.60;;
9852;SDS011;4965;43.238;27.864;2022-10-19T10:28:31;8.32;;;3.30;;
9852;SDS011;4965;43.238;27.864;2022-10-19T10:30:58;6.22;;;3.22;;
9852;SDS011;4965;43.238;27.864;2022-10-19T10:33:28;11.85;;;3.67;;
9852;SDS011;4965;43.238;27.864;2022-10-19T10:36:00;10.10;;;3.03;;
9852;SDS011;4965;43.238;27.864;2022-10-19T10:38:30;5.45;;;3.17;;
9852;SDS011;4965;43.238;27.864;2022-10-19T10:41:02;11.00;;;3.42;;
9852;SDS011;4965;43.238;27.864;2022-10-19T10:43:34;8.02;;;3.17;;
9852;SDS011;4965;43.238;27.864;2022-10-19T10:46:05;11.15;;;3.60;;
9852;SDS011;4965;43.238;27.864;2022-10-19T10:48:40;8.18;;;3.63;;
9852;SDS011;4965;43.238;27.864;2022-10-19T10:51:17;5.63;;;3.40;;
9852;SDS011;4965;43.238;27.864;2022-10-19T10:53:47;8.13;;;3.33;;
9852;SDS011;4965;43.238;27.864;2022-10-19T10:56:25;5.72;;;3.72;;
9852;SDS011;4965;43.238;27.864;2022-10-19T10:58:55;6.43;;;3.33;;
9852;SDS011;4965;43.238;27.864;2022-10-19T11:01:26;5.30;;;3.33;;
9852;SDS011;4965;43.238;27.864;2022-10-19T11:03:59;7.78;;;3.40;;
9852;SDS011;4965;43.238;27.864;2022-10-19T11:06:29;6.82;;;3.63;;
9852;SDS011;4965;43.238;27.864;2022-10-19T11:09:02;7.80;;;3.45;;
9852;SDS011;4965;43.238;27.864;2022-10-19T11:11:38;8.30;;;3.40;;
9852;SDS011;4965;43.238;27.864;2022-10-19T11:14:24;8.30;;;3.28;;
9852;SDS011;4965;43.238;27.864;2022-10-19T11:16:58;5.53;;;3.25;;
9852;SDS011;4965;43.238;27.864;2022-10-19T11:19:31;8.00;;;3.40;;
9852;SDS011;4965;43.238;27.864;2022-10-19T11:22:03;6.70;;;3.00;;
9852;SDS011;4965;43.238;27.864;2022-10-19T11:24:38;7.10;;;3.08;;
9852;SDS011;4965;43.238;27.864;2022-10-19T11:27:20;9.52;;;3.25;;
9852;SDS011;4965;43.238;27.864;2022-10-19T11:30:01;6.30;;;3.40;;
9852;SDS011;4965;43.238;27.864;2022-10-19T11:32:38;11.77;;;3.60;;
9852;SDS011;4965;43.238;27.864;2022-10-19T11:38:12;7.10;;;2.90;;
9852;SDS011;4965;43.238;27.864;2022-10-19T11:40:53;6.50;;;3.30;;
9852;SDS011;4965;43.238;27.864;2022-10-19T11:43:32;5.25;;;2.58;;
9852;SDS011;4965;43.238;27.864;2022-10-19T11:46:08;9.80;;;3.30;;
9852;SDS011;4965;43.238;27.864;2022-10-19T11:48:48;4.15;;;2.97;;
9852;SDS011;4965;43.238;27.864;2022-10-19T11:51:27;13.15;;;3.25;;
9852;SDS011;4965;43.238;27.864;2022-10-19T11:54:03;7.05;;;2.92;;
9852;SDS011;4965;43.238;27.864;2022-10-19T11:56:43;8.40;;;3.38;;
9852;SDS011;4965;43.238;27.864;2022-10-19T11:59:19;5.93;;;3.05;;
9852;SDS011;4965;43.238;27.864;2022-10-19T12:01:57;12.85;;;4.00;;
9852;SDS011;4965;43.238;27.864;2022-10-19T12:10:17;5.75;;;3.80;;
9852;SDS011;4965;43.238;27.864;2022-10-19T12:12:51;5.55;;;4.32;;
9852;SDS011;4965;43.238;27.864;2022-10-19T12:15:25;7.47;;;4.13;;
9852;SDS011;4965;43.238;27.864;2022-10-19T12:17:58;15.95;;;4.10;;
9852;SDS011;4965;43.238;27.864;2022-10-19T12:20:30;6.07;;;3.85;;
9852;SDS011;4965;43.238;27.864;2022-10-19T12:23:01;8.93;;;4.05;;
9852;SDS011;4965;43.238;27.864;2022-10-19T12:25:39;16.70;;;3.28;;
9852;SDS011;4965;43.238;27.864;2022-10-19T12:28:11;6.43;;;3.92;;
9852;SDS011;4965;43.238;27.864;2022-10-19T12:30:49;8.60;;;3.90;;
9852;SDS011;4965;43.238;27.864;2022-10-19T12:33:18;6.35;;;3.80;;
9852;SDS011;4965;43.238;27.864;2022-10-19T12:35:57;9.82;;;3.88;;
9852;SDS011;4965;43.238;27.864;2022-10-19T12:38:37;14.13;;;3.88;;
9852;SDS011;4965;43.238;27.864;2022-10-19T12:41:12;8.90;;;3.70;;
9852;SDS011;4965;43.238;27.864;2022-10-19T12:43:52;7.85;;;3.83;;
9852;SDS011;4965;43.238;27.864;2022-10-19T12:46:40;6.53;;;3.70;;
9852;SDS011;4965;43.238;27.864;2022-10-19T12:52:01;4.93;;;4.00;;
9852;SDS011;4965;43.238;27.864;2022-10-19T12:54:30;9.70;;;4.20;;
9852;SDS011;4965;43.238;27.864;2022-10-19T12:56:59;8.60;;;3.67;;
9852;SDS011;4965;43.238;27.864;2022-10-19T12:59:28;7.82;;;4.15;;
9852;SDS011;4965;43.238;27.864;2022-10-19T13:01:58;10.00;;;4.10;;
9852;SDS011;4965;43.238;27.864;2022-10-19T13:04:27;12.02;;;5.03;;
9852;SDS011;4965;43.238;27.864;2022-10-19T13:07:00;5.97;;;3.67;;
9852;SDS011;4965;43.238;27.864;2022-10-19T13:09:30;6.43;;;4.10;;
9852;SDS011;4965;43.238;27.864;2022-10-19T13:21:46;17.52;;;4.47;;
9852;SDS011;4965;43.238;27.864;2022-10-19T13:24:37;5.90;;;4.20;;
9852;SDS011;4965;43.238;27.864;2022-10-19T13:30:03;9.90;;;4.53;;
9852;SDS011;4965;43.238;27.864;2022-10-19T13:32:35;10.50;;;4.45;;
9852;SDS011;4965;43.238;27.864;2022-10-19T13:35:21;15.20;;;4.47;;
9852;SDS011;4965;43.238;27.864;2022-10-19T13:41:03;6.28;;;4.18;;
9852;SDS011;4965;43.238;27.864;2022-10-19T13:43:36;4.97;;;4.10;;
9852;SDS011;4965;43.238;27.864;2022-10-19T13:46:10;10.02;;;4.07;;
9852;SDS011;4965;43.238;27.864;2022-10-19T13:48:54;6.22;;;3.85;;
9852;SDS011;4965;43.238;27.864;2022-10-19T13:51:35;10.10;;;4.35;;
9852;SDS011;4965;43.238;27.864;2022-10-19T13:54:20;5.07;;;3.95;;
9852;SDS011;4965;43.238;27.864;2022-10-19T13:57:10;5.55;;;4.28;;
9852;SDS011;4965;43.238;27.864;2022-10-19T14:05:59;6.75;;;4.65;;
9852;SDS011;4965;43.238;27.864;2022-10-19T14:08:45;6.00;;;3.70;;
9852;SDS011;4965;43.238;27.864;2022-10-19T14:11:26;6.63;;;3.85;;
9852;SDS011;4965;43.238;27.864;2022-10-19T14:14:13;4.95;;;3.90;;
9852;SDS011;4965;43.238;27.864;2022-10-19T14:16:44;6.60;;;4.30;;
9852;SDS011;4965;43.238;27.864;2022-10-19T14:19:16;5.93;;;3.67;;
9852;SDS011;4965;43.238;27.864;2022-10-19T14:21:51;5.28;;;3.97;;
9852;SDS011;4965;43.238;27.864;2022-10-19T14:24:19;6.20;;;4.35;;
9852;SDS011;4965;43.238;27.864;2022-10-19T14:26:48;6.70;;;4.18;;
9852;SDS011;4965;43.238;27.864;2022-10-19T14:29:15;9.10;;;3.97;;
9852;SDS011;4965;43.238;27.864;2022-10-19T14:31:42;8.55;;;4.07;;
9852;SDS011;4965;43.238;27.864;2022-10-19T14:34:09;10.73;;;4.57;;
9852;SDS011;4965;43.238;27.864;2022-10-19T14:36:38;6.13;;;4.63;;
9852;SDS011;4965;43.238;27.864;2022-10-19T14:39:20;7.85;;;4.53;;
9852;SDS011;4965;43.238;27.864;2022-10-19T14:41:53;9.73;;;4.00;;
9852;SDS011;4965;43.238;27.864;2022-10-19T14:47:15;8.73;;;4.53;;
9852;SDS011;4965;43.238;27.864;2022-10-19T14:49:45;8.95;;;5.07;;
9852;SDS011;4965;43.238;27.864;2022-10-19T14:52:14;10.20;;;5.05;;
9852;SDS011;4965;43.238;27.864;2022-10-19T14:54:46;10.73;;;4.53;;
9852;SDS011;4965;43.238;27.864;2022-10-19T14:57:18;19.42;;;5.30;;
9852;SDS011;4965;43.238;27.864;2022-10-19T14:59:50;9.68;;;5.72;;
9852;SDS011;4965;43.238;27.864;2022-10-19T15:02:22;8.50;;;5.03;;
9852;SDS011;4965;43.238;27.864;2022-10-19T15:04:51;15.50;;;5.13;;
9852;SDS011;4965;43.238;27.864;2022-10-19T15:07:22;8.23;;;4.90;;
9852;SDS011;4965;43.238;27.864;2022-10-19T15:09:53;9.52;;;5.30;;
9852;SDS011;4965;43.238;27.864;2022-10-19T15:12:26;8.30;;;5.63;;
9852;SDS011;4965;43.238;27.864;2022-10-19T15:14:55;8.07;;;5.22;;
9852;SDS011;4965;43.238;27.864;2022-10-19T15:17:24;17.50;;;6.40;;
9852;SDS011;4965;43.238;27.864;2022-10-19T15:19:53;15.02;;;7.10;;
9852;SDS011;4965;43.238;27.864;2022-10-19T15:22:24;15.45;;;6.93;;
9852;SDS011;4965;43.238;27.864;2022-10-19T15:25:25;14.90;;;7.10;;
9852;SDS011;4965;43.238;27.864;2022-10-19T15:30:56;11.65;;;6.10;;
9852;SDS011;4965;43.238;27.864;2022-10-19T15:33:24;8.85;;;5.93;;
9852;SDS011;4965;43.238;27.864;2022-10-19T15:36:02;17.35;;;6.38;;
9852;SDS011;4965;43.238;27.864;2022-10-19T15:38:30;15.05;;;6.47;;
9852;SDS011;4965;43.238;27.864;2022-10-19T15:40:59;20.00;;;7.45;;
9852;SDS011;4965;43.238;27.864;2022-10-19T15:43:36;15.93;;;6.80;;
9852;SDS011;4965;43.238;27.864;2022-10-19T15:46:05;14.02;;;6.85;;
9852;SDS011;4965;43.238;27.864;2022-10-19T15:48:43;11.93;;;5.90;;
9852;SDS011;4965;43.238;27.864;2022-10-19T15:54:00;29.10;;;7.47;;
9852;SDS011;4965;43.238;27.864;2022-10-19T15:56:29;58.75;;;9.70;;